Madison, WI (53705)

5:53 AM CDT on August 28, 2014 (GMT -0500)
Hill Farms Neighborhood | Change Station
CLOSE
Current Station
Personal Weather Station
Location: Madison, WI
Elevation: 930 ft
Nearby Weather Stations

Elev 930 ft 43.06 °N, 89.46 °W | Updated 60 seconds ago

Mostly Cloudy
Mostly Cloudy
61.5 °F
Feels Like 61.5 °F
N
0.0
Wind Variable Wind from NNE
Gusts 0.0 mph

Today
High -- | Low -- °F
--% Chance of Precip.
Yesterday
High -- | Low -- °F
Precip. -- in
6:17 AM 7:39 PM
Waxing Crescent, 7% visible
Pressure 30.14 in
Visibility 1.0 miles
Clouds Mostly Cloudy 1800 ft
Dew Point 59 °F
Humidity 90%
Rainfall -999.00 in
Snow Depth Not available.
UV 0 out of 12
Pollen 9.60 out of 12
PM2.5 Good
Flu Activity Not available.
METAR KC29 281035Z AUTO 00000KT 1SM BKN018 15/14 A3014 RMK AO1 T01450144

More Conditions Fewer Conditions

Pressure 30.14 in
Visibility 1.0 miles
Clouds Mostly Cloudy 1800 ft
Dew Point 59 °F
Humidity 90%
Rainfall -999.00 in
Snow Depth Not available.
UV 0 out of 12
Pollen 9.60 out of 12
PM2.5 Good
Flu Activity Not available.
METAR KC29 281035Z AUTO 00000KT 1SM BKN018 15/14 A3014 RMK AO1 T01450144

More Conditions Fewer Conditions

10-Day Weather Forecast

Almanac

Astronomy

Aug. 28, 2014 Rise Set
Actual Time 6:17 AM CDT 7:39 PM CDT
Civil Twilight 5:48 AM CDT 8:08 PM CDT
Nautical Twilight 5:12 AM CDT 8:44 PM CDT
Astronomical Twilight 4:34 AM CDT 9:21 PM CDT
Moon 9:15 AM CDT 8:57 PM CDT
Length of Visible Light 14h 20m
Length of Day
13h 21m
Tomorrow will be 2m 47s shorter.
Waxing Crescent, 7% of the Moon is Illuminated
Today
Waxing Crescent
Sep 2
First Quarter
Sep 8
Full
Sep 15
Last Quarter
Sep 24
New

Today's Extremes

State Highs State Lows

Community

WunderPhotos

Upload Photos

1,747,920 photos uploaded!

Nearby

Air Quality

  Air Quality AQ Index Pollutant
Yesterday Good
OZONE
Yesterday Good
PM2.5
Current Good
PM2.5
Thursday Good
OZONE
Thursday Good
PM2.5
Friday Good
OZONE
Friday Good
PM2.5
Saturday Good
OZONE
Saturday Good
PM2.5
Sunday Moderate
OZONE
Sunday Moderate
PM2.5
Monday Good
OZONE
Monday Good
PM2.5

Snow Depth

Station Depth Elevation
No new snow has been reported.

Earthquake Activity

City Distance Mag. Time & Date
No recent earthquake activity has been reported nearby.
Minimum magnitude displayed is 2.5.

Coastal Water Temperatures

Place Temperature
No Stations Reporting

Nearby Weather Stations